CheckWX is a tool to help pilots better visualize weather data.  It is not intended as a substitute for an official pre-flight weather briefing.

20:31:44 UTC

KCRW TAF
Yeager Airport
Charleston, West Virginia, USA
KCRW 242322Z 2500/2524 00000KT P6SM FEW040 BKN180 FM250400 00000KT P6SM BKN100 FM251000 00000KT 5SM BR SCT090 FM251200 00000KT P6SM FEW080

May-25@
00:00 UTC

May-25 @ 00:00 UTC

May-25@
04:00 UTC

May-25 @ 04:00 UTC

TAF KCRW 242322Z 2500/2524 00000KT P6SM FEW040 BKN180

Expired

Cloud Levels
  • Few at 4,000' AGL
  • Broken at 18,000' AGL

May-25@
04:00 UTC

May-25 @ 04:00 UTC

May-25@
10:00 UTC

May-25 @ 10:00 UTC

FM250400 00000KT P6SM BKN100

Expired

Cloud Levels
  • Broken at 10,000' AGL

May-25@
10:00 UTC

May-25 @ 10:00 UTC

May-25@
12:00 UTC

May-25 @ 12:00 UTC

FM251000 00000KT 5SM BR SCT090

Expired

Conditions
Mist
Cloud Levels
  • Scattered at 9,000' AGL

May-25@
12:00 UTC

May-25 @ 12:00 UTC

May-26@
00:00 UTC

May-26 @ 00:00 UTC

FM251200 00000KT P6SM FEW080

From

From Standard forecast or significant change

Cloud Levels
  • Few at 8,000' AGL